Time;durP1;ratioP1;P1;durP2;ratioP2;P2;SDS_P1;SDS_P2;PMS_P1;PMS_P2;Temp;Humidity;BMP_temperature;BMP_pressure;BME280_temperature;BME280_humidity;BME280_pressure;Samples;Min_cycle;Max_cycle;Signal;HPM_P1;HPM_P2
2021/04/11 00:01:59;;;;;;;58.30;40.95;;;;;;;10.80;57.28;100565.87;1676794;83;32597;-80
2021/04/11 00:04:25;;;;;;;57.67;40.67;;;;;;;10.77;57.33;100566.17;1678326;83;25673;-80
2021/04/11 00:06:51;;;;;;;68.52;43.55;;;;;;;10.76;57.46;100567.16;1678319;83;25806;-80
2021/04/11 00:09:17;;;;;;;69.97;42.00;;;;;;;10.73;57.55;100565.37;1677155;83;29426;-80
2021/04/11 00:11:43;;;;;;;62.50;42.33;;;;;;;10.69;57.66;100567.47;1678624;83;34829;-80
2021/04/11 00:14:10;;;;;;;61.28;42.03;;;;;;;10.69;57.78;100565.34;1676889;83;25960;-80
2021/04/11 00:16:35;;;;;;;61.90;41.05;;;;;;;10.66;57.87;100567.79;1681335;83;25877;-80
2021/04/11 00:19:01;;;;;;;67.03;41.53;;;;;;;10.61;58.01;100567.45;1681656;83;30374;-80
2021/04/11 00:21:27;;;;;;;61.18;41.83;;;;;;;10.58;58.13;100558.13;1680260;83;25394;-80
2021/04/11 00:23:53;;;;;;;65.08;41.02;;;;;;;10.53;58.24;100556.97;1674149;83;25315;-80
2021/04/11 00:26:19;;;;;;;61.65;41.95;;;;;;;10.47;58.45;100558.44;1679172;83;32542;-81
2021/04/11 00:28:45;;;;;;;59.80;42.20;;;;;;;10.44;58.64;100551.73;1673277;83;26725;-81
2021/04/11 00:31:11;;;;;;;65.73;43.60;;;;;;;10.46;58.79;100554.69;1677690;83;28449;-81
2021/04/11 00:33:43;;;;;;;60.20;41.20;;;;;;;10.46;58.85;100553.38;1678772;83;25841;-81
2021/04/11 00:36:13;;;;;;;61.75;41.60;;;;;;;10.48;58.91;100557.47;1677743;83;25402;-81
2021/04/11 00:38:40;;;;;;;63.05;43.10;;;;;;;10.51;59.05;100561.56;1677282;83;25349;-81
2021/04/11 00:41:25;;;;;;;64.25;41.55;;;;;;;10.51;59.02;100561.07;1673575;83;25813;-81
2021/04/11 00:43:53;;;;;;;60.92;41.55;;;;;;;10.55;59.16;100563.67;1682439;82;26799;-81
2021/04/11 00:46:42;;;;;;;62.33;41.13;;;;;;;10.50;59.17;100561.22;1677720;83;25768;-81
2021/04/11 00:49:33;;;;;;;57.93;42.05;;;;;;;10.40;59.22;100558.76;1679530;83;25347;-80
2021/04/11 00:52:01;;;;;;;56.73;38.67;;;;;;;10.41;59.44;100561.69;1676356;83;25881;-81
2021/04/11 00:54:27;;;;;;;58.83;39.27;;;;;;;10.41;59.60;100557.77;1676208;83;25754;-81
2021/04/11 00:56:53;;;;;;;64.72;41.30;;;;;;;10.39;59.77;100558.41;1679034;83;25707;-81
2021/04/11 00:59:20;;;;;;;57.13;39.90;;;;;;;10.37;59.87;100559.08;1679831;83;25916;-79
2021/04/11 01:01:47;;;;;;;57.58;41.48;;;;;;;10.37;59.79;100560.38;1676991;83;25691;-80
2021/04/11 01:04:16;;;;;;;58.13;41.80;;;;;;;10.42;59.93;100568.54;1676461;83;25738;-80
2021/04/11 01:06:50;;;;;;;56.80;39.83;;;;;;;10.43;59.94;100564.48;1680474;82;25838;-79
2021/04/11 01:09:33;;;;;;;56.23;41.23;;;;;;;10.32;59.94;100563.95;1654671;83;25655;-80
2021/04/11 01:12:04;;;;;;;60.67;41.40;;;;;;;10.25;60.15;100569.44;1679829;83;25706;-80
2021/04/11 01:14:32;;;;;;;63.45;41.48;;;;;;;10.26;60.32;100578.91;1683957;83;25726;-80
2021/04/11 01:17:00;;;;;;;57.83;43.55;;;;;;;10.27;60.46;100572.26;1681777;83;25680;-80
2021/04/11 01:19:32;;;;;;;57.27;41.13;;;;;;;10.31;60.49;100584.05;1677948;83;25752;-80
2021/04/11 01:22:50;;;;;;;57.80;41.20;;;;;;;10.33;60.62;100582.07;1680399;82;25868;-80
2021/04/11 01:25:24;;;;;;;59.70;42.60;;;;;;;10.29;60.59;100583.38;1679503;83;25362;-80
2021/04/11 01:27:56;;;;;;;60.75;42.65;;;;;;;10.29;60.80;100582.07;1679809;82;25837;-80
2021/04/11 01:30:38;;;;;;;61.18;42.88;;;;;;;10.30;60.82;100586.30;1677569;83;25732;-80
2021/04/11 01:33:10;;;;;;;61.73;40.35;;;;;;;10.20;60.71;100577.73;1674584;83;27864;-80
2021/04/11 01:35:36;;;;;;;59.80;43.38;;;;;;;10.07;60.81;100576.89;1679136;83;25982;-80
2021/04/11 01:38:05;;;;;;;63.10;42.78;;;;;;;10.01;61.01;100573.57;1677397;83;25885;-80
2021/04/11 01:40:36;;;;;;;56.50;39.10;;;;;;;10.02;61.14;100571.80;1664157;83;25886;-80
2021/04/11 01:43:05;;;;;;;53.70;39.45;;;;;;;10.04;61.18;100569.37;1677611;83;25703;-81
2021/04/11 01:45:36;;;;;;;52.85;36.30;;;;;;;10.00;61.13;100566.72;1677579;83;25856;-81
2021/04/11 01:48:04;;;;;;;56.40;37.58;;;;;;;9.96;61.20;100562.80;1663954;83;25956;-81
2021/04/11 01:50:30;;;;;;;52.25;36.23;;;;;;;9.93;61.28;100563.93;1677102;83;25968;-81
2021/04/11 01:52:59;;;;;;;56.42;39.40;;;;;;;9.90;61.34;100560.79;1678350;83;25980;-81
2021/04/11 01:55:28;;;;;;;58.87;40.73;;;;;;;10.00;61.59;100565.42;1663538;84;26567;-81
2021/04/11 01:57:56;;;;;;;64.40;39.48;;;;;;;10.14;61.64;100564.01;1681965;83;25908;-81
2021/04/11 02:00:51;;;;;;;56.65;38.50;;;;;;;10.22;61.47;100565.34;1680793;83;26016;-81
2021/04/11 02:03:19;;;;;;;52.45;39.53;;;;;;;10.20;61.31;100556.84;1677999;83;25746;-81
2021/04/11 02:05:49;;;;;;;56.90;40.85;;;;;;;10.21;61.45;100558.00;1677799;83;25852;-81
2021/04/11 02:08:18;;;;;;;;;;;;;;;10.18;61.37;100560.13;1666787;83;26440;-81
2021/04/11 02:10:51;;;;;;;54.10;37.53;;;;;;;10.12;61.52;100554.20;1677613;83;25900;-80
2021/04/11 02:13:26;;;;;;;55.40;39.92;;;;;;;10.07;61.62;100559.91;1674943;83;25757;-81
2021/04/11 02:15:57;;;;;;;59.10;42.17;;;;;;;10.04;61.72;100552.39;1659505;84;25838;-81
2021/04/11 02:18:26;;;;;;;54.18;39.73;;;;;;;9.95;61.56;100554.12;1678274;83;25291;-81
2021/04/11 02:20:55;;;;;;;62.45;39.20;;;;;;;9.93;61.89;100552.18;1677503;83;26464;-80
2021/04/11 02:23:23;;;;;;;54.03;39.65;;;;;;;9.90;61.95;100549.89;1677470;83;26531;-80
2021/04/11 02:25:52;;;;;;;61.70;43.30;;;;;;;9.86;62.05;100546.42;1676849;83;25802;-81
2021/04/11 02:28:23;;;;;;;63.28;44.40;;;;;;;9.84;62.02;100546.56;1678529;83;26074;-80
2021/04/11 02:30:54;;;;;;;62.70;42.20;;;;;;;9.74;61.96;100540.66;1677781;83;25746;-81
2021/04/11 02:33:23;;;;;;;62.25;43.35;;;;;;;9.71;62.27;100543.55;1675648;83;25868;-80
2021/04/11 02:35:51;;;;;;;62.23;40.70;;;;;;;9.65;62.42;100537.66;1679447;83;25858;-80
2021/04/11 02:38:21;;;;;;;60.50;43.38;;;;;;;9.59;62.52;100535.19;1682150;83;25373;-81
2021/04/11 02:40:51;;;;;;;62.08;42.93;;;;;;;9.52;62.63;100532.84;1677492;83;25905;-80
2021/04/11 02:43:19;;;;;;;58.75;41.50;;;;;;;9.52;62.90;100536.30;1680749;83;25826;-79
2021/04/11 02:45:46;;;;;;;57.73;43.35;;;;;;;9.47;62.82;100533.81;1676295;83;26371;-80
2021/04/11 02:48:15;;;;;;;62.00;41.80;;;;;;;9.44;62.76;100533.63;1677928;83;25763;-79
2021/04/11 02:50:45;;;;;;;60.33;41.02;;;;;;;9.44;63.07;100540.16;1676619;83;25310;-81
2021/04/11 02:53:26;;;;;;;56.98;40.30;;;;;;;9.41;63.23;100540.47;1677161;83;25824;-81
2021/04/11 02:55:54;;;;;;;61.65;41.70;;;;;;;9.37;63.26;100546.13;1680289;83;25729;-81
2021/04/11 02:58:22;;;;;;;59.03;41.10;;;;;;;9.33;63.40;100555.57;1684726;83;26176;-81
2021/04/11 03:01:06;;;;;;;60.85;39.10;;;;;;;9.30;63.50;100544.14;1679418;83;25833;-81
2021/04/11 03:03:33;;;;;;;60.45;41.30;;;;;;;9.27;63.53;100542.30;1676183;83;25878;-81
2021/04/11 03:06:11;;;;;;;63.63;44.30;;;;;;;9.28;63.65;100545.27;1676572;83;25764;-81
2021/04/11 03:08:40;;;;;;;63.02;45.92;;;;;;;9.26;63.73;100545.89;1680811;83;25830;-80
2021/04/11 03:11:25;;;;;;;69.62;47.85;;;;;;;9.28;63.82;100546.08;1679353;83;25386;-80
2021/04/11 03:13:52;;;;;;;69.20;50.43;;;;;;;9.25;63.87;100552.91;1676227;83;25886;-80
2021/04/11 03:16:18;;;;;;;70.10;48.10;;;;;;;9.22;63.84;100541.93;1676311;83;26008;-80
2021/04/11 03:18:44;;;;;;;71.28;50.28;;;;;;;9.22;63.91;100542.78;1676927;83;25835;-80
2021/04/11 03:21:12;;;;;;;79.77;51.08;;;;;;;9.23;63.99;100549.63;1661562;84;25855;-80
2021/04/11 03:23:39;;;;;;;73.85;50.33;;;;;;;9.22;63.98;100549.30;1678963;83;25704;-80
2021/04/11 03:26:29;;;;;;;69.12;47.75;;;;;;;9.18;63.89;100541.92;1675841;83;26065;-80
2021/04/11 03:29:04;;;;;;;76.53;49.63;;;;;;;9.18;64.01;100541.42;1678762;84;25777;-81
2021/04/11 03:31:46;;;;;;;70.22;49.65;;;;;;;9.13;63.92;100544.16;1680425;84;26720;-81
2021/04/11 03:34:15;;;;;;;71.12;49.42;;;;;;;9.10;63.99;100550.49;1676366;84;25418;-81
2021/04/11 03:36:42;;;;;;;67.75;49.42;;;;;;;8.98;63.76;100549.91;1665750;84;25804;-81
2021/04/11 03:39:11;;;;;;;70.95;50.50;;;;;;;8.96;63.91;100550.54;1678914;84;25920;-81
2021/04/11 03:41:39;;;;;;;70.85;50.38;;;;;;;8.96;64.10;100553.64;1680005;84;25801;-81
2021/04/11 03:44:20;;;;;;;68.73;50.57;;;;;;;8.85;63.96;100549.46;1680446;84;25991;-81
2021/04/11 03:46:59;;;;;;;72.35;49.80;;;;;;;8.78;64.07;100553.62;1676660;84;25809;-81
2021/04/11 03:50:08;;;;;;;72.87;48.80;;;;;;;8.69;63.92;100558.43;1678798;84;25803;-81
2021/04/11 03:52:50;;;;;;;69.82;47.67;;;;;;;8.60;64.22;100552.33;1678435;84;27937;-81
2021/04/11 03:55:21;;;;;;;73.20;47.60;;;;;;;8.59;64.60;100564.99;1659799;84;25917;-82
2021/04/11 03:57:53;;;;;;;73.60;48.15;;;;;;;8.58;64.60;100565.48;1675973;84;25869;-80
2021/04/11 04:00:37;;;;;;;68.78;48.25;;;;;;;8.61;64.76;100566.98;1678990;84;25830;-80
2021/04/11 04:03:11;;;;;;;68.02;47.10;;;;;;;8.57;64.77;100569.55;1675881;84;25808;-80
2021/04/11 04:05:39;;;;;;;69.15;48.95;;;;;;;8.59;64.83;100568.91;1677976;83;26559;-80
2021/04/11 04:08:07;;;;;;;70.55;46.73;;;;;;;8.59;64.79;100573.66;1662535;83;25790;-80
2021/04/11 04:10:44;;;;;;;76.53;50.03;;;;;;;8.60;64.69;100572.67;1675087;83;25838;-80
2021/04/11 04:13:39;;;;;;;68.12;48.55;;;;;;;8.63;64.92;100569.77;1678432;83;25389;-81
2021/04/11 04:16:20;;;;;;;71.55;48.42;;;;;;;8.63;64.91;100572.87;1676695;83;25894;-82
2021/04/11 04:19:23;;;;;;;76.77;49.42;;;;;;;8.56;64.84;100570.50;1680106;82;26049;-80
2021/04/11 04:22:04;;;;;;;82.17;49.25;;;;;;;8.51;65.03;100573.56;1642375;84;25661;-81
2021/04/11 04:25:08;;;;;;;82.53;53.78;;;;;;;8.47;65.18;100572.20;1645433;84;25837;-81
2021/04/11 04:27:44;;;;;;;80.62;49.10;;;;;;;8.46;65.31;100584.91;1588937;87;26027;-80
2021/04/11 04:30:28;;;;;;;73.15;50.50;;;;;;;8.43;65.35;100586.50;1589414;89;25476;-81
2021/04/11 04:33:20;;;;;;;74.77;50.23;;;;;;;8.39;65.41;100585.13;1589304;87;26604;-81
2021/04/11 04:35:51;;;;;;;72.55;50.75;;;;;;;8.38;65.58;100589.50;1589541;87;26691;-81
2021/04/11 04:38:47;;;;;;;68.87;47.88;;;;;;;8.33;65.61;100589.11;1590640;89;25887;-81
2021/04/11 04:41:40;;;;;;;74.47;47.40;;;;;;;8.33;65.75;100593.50;1590009;89;25961;-81
2021/04/11 04:44:33;;;;;;;64.53;45.12;;;;;;;8.27;65.72;100594.91;1589550;87;25916;-81
2021/04/11 04:47:14;;;;;;;70.67;42.75;;;;;;;8.27;65.82;100596.69;1589040;88;25720;-81
2021/04/11 04:49:58;;;;;;;65.57;42.58;;;;;;;8.26;65.94;100599.75;1588307;87;25426;-81
2021/04/11 04:52:30;;;;;;;60.90;40.80;;;;;;;8.23;65.94;100597.44;1590029;87;25886;-81
2021/04/11 04:55:16;;;;;;;57.80;37.35;;;;;;;8.28;66.03;100602.23;1591375;87;25775;-80
2021/04/11 04:57:57;;;;;;;50.80;34.67;;;;;;;8.31;66.02;100602.75;1589489;87;25666;-80
2021/04/11 05:00:31;;;;;;;52.65;32.75;;;;;;;8.40;66.00;100605.00;1623310;86;25899;-81
2021/04/11 05:03:07;;;;;;;57.30;32.20;;;;;;;8.49;65.85;100613.75;1632287;86;25774;-82
2021/04/11 05:05:42;;;;;;;54.38;31.33;;;;;;;8.57;65.74;100611.23;1683633;83;25371;-82
2021/04/11 05:08:28;;;;;;;40.67;29.18;;;;;;;8.62;65.57;100609.84;1679467;83;25877;-82
2021/04/11 05:11:23;;;;;;;53.00;31.42;;;;;;;8.65;65.49;100610.03;1677000;83;25358;-81
2021/04/11 05:13:58;;;;;;;43.28;27.07;;;;;;;8.73;65.34;100613.17;1679889;83;25786;-80
2021/04/11 05:16:30;;;;;;;43.63;28.20;;;;;;;8.77;65.19;100614.05;1679648;83;25366;-80
2021/04/11 05:19:17;;;;;;;37.03;24.98;;;;;;;8.83;65.16;100616.06;1674117;83;25868;-79
2021/04/11 05:21:53;;;;;;;40.58;25.25;;;;;;;8.86;65.03;100617.55;1684530;83;25875;-81
2021/04/11 05:24:31;;;;;;;32.88;23.20;;;;;;;8.90;64.94;100612.40;1679538;83;25822;-81
2021/04/11 05:27:05;;;;;;;35.50;23.05;;;;;;;8.92;64.87;100622.20;1674933;83;25952;-81
2021/04/11 05:29:48;;;;;;;33.18;21.77;;;;;;;8.97;64.86;100616.03;1681786;83;25571;-82
2021/04/11 05:32:15;;;;;;;33.38;20.77;;;;;;;8.98;64.74;100612.48;1680747;83;25765;-83
2021/04/11 05:34:42;;;;;;;29.85;19.15;;;;;;;9.03;64.60;100609.41;1684811;83;25359;-82
2021/04/11 05:37:30;;;;;;;30.35;18.05;;;;;;;9.09;64.54;100609.65;1682689;83;42970;-82
2021/04/11 05:40:07;;;;;;;30.10;18.92;;;;;;;9.12;64.32;100608.53;1685177;83;25832;-82
2021/04/11 05:42:57;;;;;;;30.48;17.45;;;;;;;9.11;64.28;100614.23;1683450;83;25363;-82
2021/04/11 05:45:32;;;;;;;30.25;18.02;;;;;;;9.17;64.24;100612.00;1685763;83;25912;-82
2021/04/11 05:48:30;;;;;;;27.13;17.32;;;;;;;9.23;64.19;100614.01;1680773;83;25604;-82
2021/04/11 05:51:29;;;;;;;28.23;16.02;;;;;;;9.27;64.11;100602.29;1678468;83;25862;-82
2021/04/11 05:54:15;;;;;;;27.02;16.48;;;;;;;9.36;64.05;100607.08;1682140;83;26489;-80
2021/04/11 05:56:47;;;;;;;24.23;15.90;;;;;;;9.44;64.03;100605.38;1683301;83;25806;-81
2021/04/11 05:59:27;;;;;;;29.10;16.77;;;;;;;9.55;63.96;100604.32;1681347;83;26521;-81
2021/04/11 06:01:59;;;;;;;26.97;16.55;;;;;;;9.62;63.93;100607.94;1675872;83;25930;-79
2021/04/11 06:04:45;;;;;;;28.40;17.00;;;;;;;9.71;63.78;100603.13;1684522;83;25771;-80
2021/04/11 06:07:20;;;;;;;26.00;16.12;;;;;;;9.78;63.66;100602.02;1682252;83;25940;-81
2021/04/11 06:10:06;;;;;;;24.30;14.38;;;;;;;9.86;63.52;100600.76;1679362;83;25737;-81
2021/04/11 06:12:47;;;;;;;24.80;15.23;;;;;;;9.95;63.50;100591.17;1678410;83;25859;-81
2021/04/11 06:15:21;;;;;;;25.23;16.02;;;;;;;10.04;63.39;100602.02;1672677;83;25639;-81
2021/04/11 06:17:49;;;;;;;23.55;14.85;;;;;;;10.13;63.25;100601.06;1678231;83;25783;-81
2021/04/11 06:20:16;;;;;;;26.33;14.63;;;;;;;10.21;63.07;100600.30;1678481;83;25834;-82
2021/04/11 06:23:30;;;;;;;23.95;14.45;;;;;;;10.31;62.89;100608.02;1675706;83;25357;-82
2021/04/11 06:26:07;;;;;;;23.65;15.18;;;;;;;10.38;62.81;100602.51;1679882;83;25798;-81
2021/04/11 06:29:06;;;;;;;22.93;13.65;;;;;;;10.50;62.64;100600.42;1672061;83;25708;-81
2021/04/11 06:31:41;;;;;;;23.70;14.00;;;;;;;10.57;62.41;100598.33;1651446;84;25375;-82
2021/04/11 06:34:21;;;;;;;25.97;13.88;;;;;;;10.63;62.14;100598.17;1655756;84;25878;-82
2021/04/11 06:36:50;;;;;;;23.50;12.95;;;;;;;10.70;62.12;100593.14;1636104;85;25819;-80
2021/04/11 06:39:25;;;;;;;24.27;13.40;;;;;;;10.76;61.83;100589.39;1638068;85;25894;-80
2021/04/11 06:42:12;;;;;;;23.62;13.18;;;;;;;10.84;61.77;100589.89;1637213;85;26488;-81
2021/04/11 06:45:07;;;;;;;22.42;13.13;;;;;;;10.91;61.60;100584.33;1633952;85;25341;-81
2021/04/11 06:48:18;;;;;;;21.42;12.63;;;;;;;10.99;61.48;100580.42;1636024;85;25873;-82
2021/04/11 06:51:08;;;;;;;22.25;12.55;;;;;;;11.09;61.41;100581.09;1636040;86;25576;-82
2021/04/11 06:54:25;;;;;;;20.32;12.93;;;;;;;11.21;61.13;100575.53;1635305;86;25389;-82
2021/04/11 06:57:36;;;;;;;19.10;11.88;;;;;;;11.29;60.86;100576.36;1637213;85;25794;-82
2021/04/11 07:00:30;;;;;;;21.95;12.05;;;;;;;11.40;60.73;100583.53;1635466;86;25779;-82
2021/04/11 07:03:47;;;;;;;22.45;12.50;;;;;;;11.51;60.61;100583.19;1584845;89;25911;-82
2021/04/11 07:06:41;;;;;;;21.52;11.33;;;;;;;11.63;60.41;100581.07;1583914;89;25932;-80
2021/04/11 07:09:16;;;;;;;18.07;11.03;;;;;;;11.75;60.29;100575.30;1582472;89;26007;-80
2021/04/11 07:12:15;;;;;;;19.17;10.58;;;;;;;11.88;60.10;100577.44;1576397;89;25851;-80
2021/04/11 07:15:24;;;;;;;17.70;10.63;;;;;;;12.00;60.07;100571.33;1584553;88;25969;-80
2021/04/11 07:18:12;;;;;;;20.25;12.05;;;;;;;12.14;59.69;100578.50;1588819;88;26507;-80
2021/04/11 07:21:31;;;;;;;19.75;11.63;;;;;;;12.26;59.29;100568.95;1543666;91;25389;-82
2021/04/11 07:24:24;;;;;;;19.60;11.75;;;;;;;12.36;59.13;100566.95;1545063;91;26013;-82
2021/04/11 07:27:01;;;;;;;20.08;10.93;;;;;;;12.50;58.91;100564.09;1547196;91;25888;-81
2021/04/11 07:30:12;;;;;;;20.92;12.03;;;;;;;12.60;58.55;100559.42;1548112;91;26047;-80
2021/04/11 07:33:09;;;;;;;21.40;11.70;;;;;;;12.70;58.37;100561.33;1547658;91;25804;-82
2021/04/11 07:35:52;;;;;;;21.52;12.05;;;;;;;12.85;58.04;100564.84;1546668;91;26036;-81
2021/04/11 07:38:46;;;;;;;18.70;10.72;;;;;;;12.96;57.83;100560.16;1544794;91;25792;-80
2021/04/11 07:41:57;;;;;;;17.85;10.32;;;;;;;13.10;57.69;100554.17;1575200;89;25390;-82
2021/04/11 07:45:09;;;;;;;19.98;11.90;;;;;;;13.24;57.48;100557.83;1576365;89;25818;-81
2021/04/11 07:48:08;;;;;;;17.65;10.93;;;;;;;13.34;57.16;100554.48;1578883;88;25803;-81
2021/04/11 07:50:52;;;;;;;19.30;11.05;;;;;;;13.49;56.93;100553.19;1576466;89;25863;-80
2021/04/11 07:53:47;;;;;;;19.07;11.53;;;;;;;13.63;56.49;100548.94;1580500;89;25368;-82
2021/04/11 07:57:02;;;;;;;18.62;11.20;;;;;;;13.74;56.20;100549.80;1580356;89;25637;-80
2021/04/11 07:59:52;;;;;;;20.05;11.93;;;;;;;13.87;56.14;100549.18;1681954;83;25777;-84
2021/04/11 08:03:05;;;;;;;20.20;9.88;;;;;;;14.03;55.84;100548.99;1679574;83;26007;-81
2021/04/11 08:05:51;;;;;;;21.02;11.28;;;;;;;14.18;55.50;100550.27;1687846;83;25847;-85
2021/04/11 08:08:31;;;;;;;21.48;11.25;;;;;;;14.31;54.57;100546.48;1678099;83;25338;-80
2021/04/11 08:11:30;;;;;;;20.52;11.08;;;;;;;14.41;54.33;100549.65;1677269;83;25334;-81
2021/04/11 08:14:32;;;;;;;18.02;10.85;;;;;;;14.52;54.03;100549.70;1681170;83;25586;-82
2021/04/11 08:17:12;;;;;;;19.10;11.18;;;;;;;14.63;53.85;100551.83;1679494;83;25773;-82
2021/04/11 08:20:02;;;;;;;20.23;11.00;;;;;;;14.75;53.21;100548.70;1684655;83;25920;-81
2021/04/11 08:22:52;;;;;;;27.87;12.78;;;;;;;14.81;52.84;100549.27;1681517;83;25750;-80
2021/04/11 08:25:36;;;;;;;21.35;11.97;;;;;;;14.88;52.36;100549.64;1684020;83;25861;-81
2021/04/11 08:28:38;;;;;;;19.23;11.25;;;;;;;14.99;52.34;100549.64;1681809;83;26060;-81
2021/04/11 08:32:00;;;;;;;21.40;11.18;;;;;;;15.09;51.67;100546.70;1682279;83;25718;-80
2021/04/11 08:35:11;;;;;;;21.25;12.28;;;;;;;15.23;52.02;100541.84;1684724;83;25993;-81
2021/04/11 08:38:17;;;;;;;20.37;10.50;;;;;;;15.39;51.64;100545.21;1681548;83;25844;-80
2021/04/11 08:41:03;;;;;;;20.30;11.18;;;;;;;15.49;51.28;100545.66;1674145;83;25722;-80
2021/04/11 08:44:10;;;;;;;21.35;11.22;;;;;;;15.60;51.22;100546.44;1681303;83;25994;-81
2021/04/11 08:47:01;;;;;;;19.73;11.03;;;;;;;15.71;51.01;100550.39;1680194;83;27190;-80
2021/04/11 08:49:50;;;;;;;19.35;11.60;;;;;;;15.83;50.90;100543.58;1679000;83;25413;-81
2021/04/11 08:52:45;;;;;;;24.32;11.00;;;;;;;15.92;50.12;100545.54;1682346;83;25735;-81
2021/04/11 08:55:49;;;;;;;18.57;11.22;;;;;;;16.00;49.78;100541.94;1681448;83;25896;-80
2021/04/11 08:58:42;;;;;;;22.67;12.78;;;;;;;16.09;49.72;100540.75;1685858;83;25809;-81
2021/04/11 09:01:50;;;;;;;17.55;10.03;;;;;;;16.20;49.62;100541.02;1683525;83;26661;-80
2021/04/11 09:04:38;;;;;;;21.45;10.55;;;;;;;16.23;48.90;100533.70;1679438;83;25867;-79
2021/04/11 09:07:28;;;;;;;16.85;9.75;;;;;;;16.30;48.61;100535.86;1679118;83;25842;-81
2021/04/11 09:10:48;;;;;;;17.30;9.18;;;;;;;16.36;48.51;100536.38;1690845;82;25858;-80
2021/04/11 09:14:00;;;;;;;18.45;8.68;;;;;;;16.45;48.03;100525.97;1684099;83;25757;-80
2021/04/11 09:16:37;;;;;;;16.35;8.30;;;;;;;16.57;47.98;100521.72;1681216;83;26471;-79
2021/04/11 09:19:17;;;;;;;18.00;8.13;;;;;;;16.69;47.97;100514.02;1682194;83;25804;-79
2021/04/11 09:22:15;;;;;;;12.45;8.68;;;;;;;16.80;47.78;100506.84;1681722;83;25773;-74
2021/04/11 09:24:46;;;;;;;17.27;7.30;;;;;;;16.93;47.99;100494.16;1682474;83;25794;-75
2021/04/11 09:27:36;;;;;;;11.22;6.30;;;;;;;17.12;47.60;100495.69;1678785;83;25833;-75
2021/04/11 09:30:40;;;;;;;14.80;6.25;;;;;;;17.17;47.24;100492.73;1677486;83;26466;-76
2021/04/11 09:33:52;;;;;;;12.80;6.03;;;;;;;17.21;46.66;100482.56;1678299;83;26494;-77
2021/04/11 09:36:42;;;;;;;10.03;5.10;;;;;;;17.37;46.39;100482.13;1677834;83;26678;-82
2021/04/11 09:39:42;;;;;;;12.75;4.95;;;;;;;17.45;44.91;100473.17;1672812;83;25395;-85
2021/04/11 09:42:29;;;;;;;9.48;4.50;;;;;;;17.50;45.22;100467.56;1682351;83;25773;-81
2021/04/11 09:45:33;;;;;;;10.82;4.10;;;;;;;17.57;43.45;100466.72;1673756;83;25654;-86
2021/04/11 09:48:29;;;;;;;13.62;4.30;;;;;;;17.59;44.33;100465.49;1671323;83;25962;-85
2021/04/11 09:51:15;;;;;;;10.68;4.40;;;;;;;17.70;43.66;100466.68;1668806;83;25815;-85
2021/04/11 09:53:56;;;;;;;11.18;5.17;;;;;;;17.74;43.70;100466.58;1670626;83;25780;-85
2021/04/11 09:56:45;;;;;;;10.53;4.85;;;;;;;17.78;43.81;100461.67;1671930;83;25741;-85
2021/04/11 09:59:54;;;;;;;8.53;3.75;;;;;;;17.94;43.56;100459.39;1670319;83;26308;-85
2021/04/11 10:03:00;;;;;;;9.18;4.00;;;;;;;18.06;42.83;100457.39;1669115;83;25768;-86
2021/04/11 10:05:54;;;;;;;8.93;3.52;;;;;;;18.08;42.58;100461.45;1663176;83;25786;-84
2021/04/11 10:08:44;;;;;;;8.03;3.65;;;;;;;18.15;41.56;100450.84;1668410;83;26585;-85
2021/04/11 10:11:32;;;;;;;7.90;2.83;;;;;;;18.19;37.63;100446.22;1680032;83;25338;-85
2021/04/11 10:14:34;;;;;;;11.95;3.70;;;;;;;18.21;39.79;100449.98;1674072;83;25903;-86
2021/04/11 10:17:35;;;;;;;9.70;3.40;;;;;;;18.26;40.67;100449.36;1602453;87;25781;-86
2021/04/11 10:20:09;;;;;;;10.32;3.42;;;;;;;18.34;41.36;100444.62;1601946;87;25399;-85
2021/04/11 10:22:52;;;;;;;11.80;3.70;;;;;;;18.43;41.26;100440.39;1601556;87;26426;-85
2021/04/11 10:25:39;;;;;;;9.18;3.87;;;;;;;18.46;41.23;100432.81;1602003;87;25912;-85
2021/04/11 10:28:36;;;;;;;13.78;4.20;;;;;;;18.50;39.79;100426.60;1602985;87;25873;-85
2021/04/11 10:31:22;;;;;;;8.70;3.40;;;;;;;18.56;41.09;100427.86;1602782;87;25779;-85
2021/04/11 10:34:20;;;;;;;6.10;2.98;;;;;;;18.74;41.07;100431.58;1603184;87;25862;-83
2021/04/11 10:37:01;;;;;;;7.95;3.20;;;;;;;18.82;40.72;100426.03;1602037;87;25399;-80
2021/04/11 10:39:49;;;;;;;12.93;3.58;;;;;;;18.83;39.93;100423.19;1601835;87;25704;-82
2021/04/11 10:42:29;;;;;;;9.68;3.60;;;;;;;18.83;39.26;100427.67;1601024;87;26847;-83
2021/04/11 10:45:18;;;;;;;13.58;4.78;;;;;;;18.77;39.70;100422.73;1602048;87;25829;-83
2021/04/11 10:48:21;;;;;;;7.97;3.77;;;;;;;18.84;39.32;100418.17;1603428;87;26670;-83
2021/04/11 10:51:18;;;;;;;6.87;3.47;;;;;;;18.94;38.77;100414.23;1601473;87;25932;-83
2021/04/11 10:54:07;;;;;;;13.13;2.70;;;;;;;18.94;38.95;100425.63;1621760;83;25429;-82
2021/04/11 10:56:47;;;;;;;9.80;2.60;;;;;;;18.96;37.62;100425.39;1675533;83;26530;-82
2021/04/11 10:59:41;;;;;;;11.65;2.70;;;;;;;19.00;37.81;100428.73;1622190;87;26614;-82
2021/04/11 11:02:54;;;;;;;9.60;3.10;;;;;;;19.04;36.28;100421.14;1621847;87;25922;-83
2021/04/11 11:06:07;;;;;;;10.70;3.37;;;;;;;19.08;37.45;100419.69;1621605;87;25847;-82
2021/04/11 11:08:41;;;;;;;8.10;2.87;;;;;;;19.13;37.07;100420.36;1625504;87;25868;-82
2021/04/11 11:11:39;;;;;;;6.10;2.83;;;;;;;19.13;37.73;100415.88;1593857;88;26555;-83
2021/04/11 11:14:31;;;;;;;11.45;3.37;;;;;;;19.20;37.00;100417.11;1589445;89;25866;-83
2021/04/11 11:17:35;;;;;;;10.93;2.72;;;;;;;19.23;37.32;100420.16;1587612;89;25867;-83
2021/04/11 11:20:38;;;;;;;7.95;3.12;;;;;;;19.33;37.18;100413.52;1588783;89;26057;-83
2021/04/11 11:23:32;;;;;;;10.08;3.15;;;;;;;19.32;36.76;100419.86;1589554;89;25940;-83
2021/04/11 11:26:15;;;;;;;6.85;3.55;;;;;;;19.31;37.42;100417.70;1592975;89;25734;-83
2021/04/11 11:29:12;;;;;;;7.33;2.92;;;;;;;19.34;37.11;100409.30;1589390;89;25380;-83
2021/04/11 11:32:09;;;;;;;12.15;3.12;;;;;;;19.39;37.14;100409.45;1588306;89;26116;-83
2021/04/11 11:35:02;;;;;;;10.30;3.27;;;;;;;19.46;36.03;100405.41;1588521;89;25910;-83
2021/04/11 11:37:45;;;;;;;6.17;2.75;;;;;;;19.44;36.90;100402.97;1621325;86;26140;-83
2021/04/11 11:40:34;;;;;;;14.40;3.85;;;;;;;19.43;36.96;100396.06;1629373;86;25790;-82
2021/04/11 11:43:20;;;;;;;9.18;3.70;;;;;;;19.48;36.87;100399.37;1631019;86;25906;-83
2021/04/11 11:46:08;;;;;;;7.78;3.22;;;;;;;19.54;37.00;100401.12;1629429;86;25922;-83
2021/04/11 11:48:49;;;;;;;10.13;3.77;;;;;;;19.61;37.26;100395.20;1652248;83;25673;-83
2021/04/11 11:51:23;;;;;;;11.12;3.22;;;;;;;19.71;37.71;100398.17;1679196;83;25961;-83
2021/04/11 11:54:01;;;;;;;9.68;3.00;;;;;;;19.81;37.26;100386.23;1675631;83;25777;-83
2021/04/11 11:56:38;;;;;;;9.60;3.20;;;;;;;19.83;36.94;100383.63;1681754;82;25780;-83
2021/04/11 11:59:22;;;;;;;11.40;3.30;;;;;;;19.84;36.90;100381.80;1679189;83;25519;-83
2021/04/11 12:01:58;;;;;;;10.45;3.83;;;;;;;19.89;36.37;100382.74;1676541;83;25383;-83
2021/04/11 12:04:51;;;;;;;11.60;2.70;;;;;;;19.86;35.59;100382.36;1676978;83;25774;-83
2021/04/11 12:07:36;;;;;;;10.68;3.10;;;;;;;19.86;36.16;100375.23;1680112;83;25680;-83
2021/04/11 12:10:26;;;;;;;7.55;3.37;;;;;;;19.95;36.25;100372.55;1675758;83;25801;-83
2021/04/11 12:13:22;;;;;;;6.83;3.00;;;;;;;20.02;36.07;100371.63;1678985;83;26606;-83
2021/04/11 12:16:11;;;;;;;6.92;3.12;;;;;;;20.09;35.96;100365.72;1683510;83;25779;-83
2021/04/11 12:19:15;;;;;;;8.50;2.58;;;;;;;20.12;36.42;100363.41;1677244;82;25842;-83
2021/04/11 12:22:04;;;;;;;18.62;3.90;;;;;;;20.20;35.44;100358.82;1679435;83;26456;-84
2021/04/11 12:24:34;;;;;;;7.83;3.33;;;;;;;20.18;35.44;100359.03;1680629;83;25804;-83
2021/04/11 12:27:05;;;;;;;10.28;3.10;;;;;;;20.12;35.43;100348.81;1678087;83;25803;-83
2021/04/11 12:29:34;;;;;;;8.93;3.42;;;;;;;20.13;35.86;100356.25;1678277;83;25996;-83